Terminal Aerodrome Forecast
Issued by NWS

Home | Current Version | Previous Version | Text Only | Print | Product List | Glossary On
Versions: 1 2 3 4 5 6 7 8 9 10 11 12 13 14 15 16 17 18
787
FTPA31 PHFO 010112 AAA
TAFHOG
TAF AMD
PHOG 010112Z 0101/0124 06017G25KT P6SM SCT030 SCT050 WS020/09025KT
     FM010600 05011KT P6SM FEW030 BKN050
     FM012000 05018G26KT P6SM FEW050=

USA.gov is the U.S. government's official web portal to all federal, state and local government web resources and services.